CYEG

Edmonton International Airport

Airport
ICAO code
CYEG
IATA Code
YEG
Summary
ICAO Region
NAM
ICAO Territory
Location

Edmonton, Alberta

Serving
Edmonton
Elevation
2373 ft
Coordinates
53° 18' 29" N , 113° 35' 2" W
KCC
Metar
Observation
CYEG 281200Z 31014G23KT 15SM -SN DRSN FEW030 OVC072 M11/M14 A2986 RMK SC2AC6 SLP161
Station
Edmonton International, Alta.
Date/Time
2022-11-28 12:00:00
Wind direction
310°
Wind speed
14 kts
Lowest cloud amount
few clouds
Temperature
-11°C
Dew point
-14°C
Humidity
78%
Weather condition
light drifting

Description

International airport serving Edmonton, Alberta.

Climatology

Humid Continental climate (Köppen climate classification Dfb) - Variable weather patterns and a large seasonal temperature variance. Summers are often warm and humid with frequent thunderstorms and winters can be very cold with frequent snowfall and persistent snow cover.

Runways

Designator Length Width Surface Rops
12/30 3109 61 ASP Yes/Yes
2/20 3353 61 ASP Yes/Yes

Airport map

Aerial View

Airport accidents

SKYbrary Partners:

Safety knowledge contributed by: